Time;durP1;ratioP1;P1;durP2;ratioP2;P2;SDS_P1;SDS_P2;PMS_P1;PMS_P2;Temp;Humidity;BMP_temperature;BMP_pressure;BME280_temperature;BME280_humidity;BME280_pressure;Samples;Min_cycle;Max_cycle;Signal;HPM_P1;HPM_P2
2022/07/23 00:01:58;;;;;;;11.35;8.43;;;15.90;99.90;;;;;;5114623;27;20197;-81
2022/07/23 00:04:25;;;;;;;13.45;8.55;;;15.90;99.90;;;;;;5112954;28;20393;-81
2022/07/23 00:06:52;;;;;;;11.77;7.55;;;15.80;99.90;;;;;;5114928;28;20197;-82
2022/07/23 00:09:19;;;;;;;10.13;7.20;;;16.00;99.90;;;;;;5114841;28;20229;-81
2022/07/23 00:11:47;;;;;;;13.30;8.25;;;16.00;99.90;;;;;;5110287;28;20201;-82
2022/07/23 00:14:14;;;;;;;12.60;7.35;;;15.80;99.90;;;;;;5114325;28;20665;-82
2022/07/23 00:16:40;;;;;;;13.55;7.55;;;15.80;99.90;;;;;;5113013;28;20200;-82
2022/07/23 00:19:07;;;;;;;10.18;6.90;;;15.80;99.90;;;;;;5115416;28;20207;-81
2022/07/23 00:21:34;;;;;;;11.38;7.30;;;15.90;99.90;;;;;;5115385;28;20207;-82
2022/07/23 00:24:01;;;;;;;9.93;7.40;;;15.80;99.90;;;;;;5114297;28;20270;-82
2022/07/23 00:26:28;;;;;;;9.75;7.03;;;15.80;99.90;;;;;;5113626;28;20661;-81
2022/07/23 00:28:56;;;;;;;11.25;6.85;;;15.80;99.90;;;;;;5095436;28;20202;-81
2022/07/23 00:31:23;;;;;;;10.40;7.03;;;15.70;99.90;;;;;;5112003;28;20684;-81
2022/07/23 00:33:50;;;;;;;12.00;7.78;;;15.80;99.90;;;;;;5114479;28;20227;-81
2022/07/23 00:36:17;;;;;;;13.00;8.35;;;15.80;99.90;;;;;;5115396;28;20618;-81
2022/07/23 00:38:43;;;;;;;11.75;7.53;;;15.70;99.90;;;;;;5115736;28;20193;-81
2022/07/23 00:41:10;;;;;;;13.63;7.30;;;15.70;99.90;;;;;;5114672;28;20634;-81
2022/07/23 00:43:37;;;;;;;12.57;8.05;;;15.60;99.90;;;;;;5096089;28;20217;-82
2022/07/23 00:46:05;;;;;;;10.25;7.18;;;15.70;99.90;;;;;;5100829;28;20196;-81
2022/07/23 00:48:32;;;;;;;12.93;8.15;;;15.70;99.90;;;;;;5105166;28;20292;-81
2022/07/23 00:50:59;;;;;;;10.27;7.30;;;15.80;99.90;;;;;;5114935;28;20209;-81
2022/07/23 00:53:26;;;;;;;10.68;7.13;;;15.80;99.90;;;;;;5114423;28;20220;-82
2022/07/23 00:55:54;;;;;;;10.52;7.82;;;15.60;99.90;;;;;;5112989;28;20223;-81
2022/07/23 00:58:21;;;;;;;11.68;7.82;;;15.50;99.90;;;;;;5114216;28;20600;-81
2022/07/23 01:00:47;;;;;;;10.60;7.78;;;15.50;99.90;;;;;;5113413;28;20190;-82
2022/07/23 01:03:16;;;;;;;11.90;8.02;;;15.50;99.90;;;;;;5111716;28;20308;-81
2022/07/23 01:05:42;;;;;;;10.90;7.82;;;15.50;99.90;;;;;;5112977;28;20244;-81
2022/07/23 01:08:09;;;;;;;12.43;8.52;;;15.50;99.90;;;;;;5114509;28;20204;-81
2022/07/23 01:10:36;;;;;;;13.82;8.52;;;15.60;99.90;;;;;;5113165;28;20287;-81
2022/07/23 01:13:05;;;;;;;11.10;7.85;;;15.60;99.90;;;;;;5109316;28;20651;-81
2022/07/23 01:15:33;;;;;;;10.27;7.90;;;15.50;99.90;;;;;;5106731;28;20205;-81
2022/07/23 01:18:00;;;;;;;10.88;8.30;;;15.60;99.90;;;;;;5111863;28;20692;-81
2022/07/23 01:20:28;;;;;;;16.05;8.30;;;15.50;99.90;;;;;;5113421;28;20573;-82
2022/07/23 01:22:56;;;;;;;13.38;8.30;;;15.50;99.90;;;;;;5106863;28;20213;-82
2022/07/23 01:25:25;;;;;;;12.70;8.27;;;15.50;99.90;;;;;;5113447;28;20217;-81
2022/07/23 01:27:52;;;;;;;12.23;8.07;;;15.50;99.90;;;;;;5108856;28;20212;-81
2022/07/23 01:30:20;;;;;;;14.02;7.88;;;15.50;99.90;;;;;;5100104;28;20292;-82
2022/07/23 01:32:46;;;;;;;13.63;9.18;;;15.50;99.90;;;;;;5111128;28;20677;-81
2022/07/23 01:35:14;;;;;;;12.55;7.57;;;15.40;99.90;;;;;;5113855;28;20343;-81
2022/07/23 01:37:41;;;;;;;12.02;8.13;;;15.40;99.90;;;;;;5112989;28;20200;-81
2022/07/23 01:40:09;;;;;;;13.05;8.15;;;15.30;99.90;;;;;;5113458;28;20508;-82
2022/07/23 01:42:36;;;;;;;10.60;7.88;;;15.20;99.90;;;;;;5112559;28;20236;-82
2022/07/23 01:45:05;;;;;;;10.27;7.80;;;15.20;99.90;;;;;;5113697;28;20660;-82
2022/07/23 01:47:32;;;;;;;13.00;8.63;;;15.10;99.90;;;;;;5113598;28;20279;-81
2022/07/23 01:49:58;;;;;;;11.68;8.20;;;15.20;99.90;;;;;;5111278;28;20296;-81
2022/07/23 01:52:25;;;;;;;11.43;8.07;;;15.10;99.90;;;;;;5112131;28;20573;-81
2022/07/23 01:54:52;;;;;;;14.55;8.32;;;15.10;99.90;;;;;;5113471;28;20235;-81
2022/07/23 01:57:20;;;;;;;10.65;7.97;;;14.80;99.90;;;;;;5111684;28;20659;-81
2022/07/23 01:59:47;;;;;;;11.68;7.82;;;14.90;99.90;;;;;;5113006;28;20625;-81
2022/07/23 02:02:14;;;;;;;12.63;7.57;;;14.80;99.90;;;;;;5112571;28;20237;-80
2022/07/23 02:04:41;;;;;;;12.65;7.88;;;14.80;99.90;;;;;;5113592;28;20415;-81
2022/07/23 02:07:08;;;;;;;9.80;7.53;;;14.80;99.90;;;;;;5111866;28;20308;-81
2022/07/23 02:09:35;;;;;;;14.55;8.93;;;14.80;99.90;;;;;;5112149;28;20201;-80
2022/07/23 02:12:02;;;;;;;12.43;8.95;;;14.90;99.90;;;;;;5112193;28;20204;-81
2022/07/23 02:14:30;;;;;;;11.95;7.78;;;14.90;99.90;;;;;;5112143;28;20319;-80
2022/07/23 02:16:57;;;;;;;12.30;8.07;;;14.80;99.90;;;;;;5111299;28;20293;-80
2022/07/23 02:19:24;;;;;;;11.93;8.75;;;14.80;99.90;;;;;;5110664;28;20224;-81
2022/07/23 02:21:51;;;;;;;12.77;8.93;;;14.90;99.90;;;;;;5099030;28;20237;-81
2022/07/23 02:24:18;;;;;;;13.70;8.13;;;14.90;99.90;;;;;;5104170;28;20443;-81
2022/07/23 02:26:44;;;;;;;12.52;8.73;;;14.90;99.90;;;;;;5109758;28;20621;-82
2022/07/23 02:29:11;;;;;;;14.90;9.30;;;15.00;99.90;;;;;;5110598;28;20299;-81
2022/07/23 02:31:40;;;;;;;10.65;8.65;;;15.00;99.90;;;;;;5109825;28;20602;-82
2022/07/23 02:34:07;;;;;;;12.00;8.60;;;15.00;99.90;;;;;;5111274;28;20231;-81
2022/07/23 02:36:34;;;;;;;13.47;9.53;;;15.10;99.90;;;;;;5111776;28;20223;-81
2022/07/23 02:39:00;;;;;;;12.83;9.30;;;15.00;99.90;;;;;;5110210;28;20325;-81
2022/07/23 02:41:27;;;;;;;11.13;8.73;;;15.00;99.90;;;;;;5110957;28;20667;-81
2022/07/23 02:43:54;;;;;;;13.00;8.97;;;15.00;99.90;;;;;;5095541;28;20208;-81
2022/07/23 02:46:21;;;;;;;13.47;9.23;;;15.00;99.90;;;;;;5110278;28;20211;-82
2022/07/23 02:48:49;;;;;;;13.03;9.03;;;15.00;99.90;;;;;;5111651;28;20214;-81
2022/07/23 02:51:16;;;;;;;14.17;9.53;;;14.90;99.90;;;;;;5111930;28;20211;-81
2022/07/23 02:53:43;;;;;;;14.95;9.35;;;14.70;99.90;;;;;;5111805;28;20224;-81
2022/07/23 02:56:10;;;;;;;13.07;8.90;;;14.80;99.90;;;;;;5112487;28;20642;-81
2022/07/23 02:58:37;;;;;;;14.05;9.25;;;14.90;99.90;;;;;;5104837;28;20725;-81
2022/07/23 03:01:04;;;;;;;14.77;9.73;;;14.90;99.90;;;;;;5105450;28;20209;-82
2022/07/23 03:03:31;;;;;;;13.37;9.03;;;14.80;99.90;;;;;;5104034;28;20233;-81
2022/07/23 03:05:59;;;;;;;12.40;9.20;;;14.80;99.90;;;;;;5093313;28;20197;-81
2022/07/23 03:08:26;;;;;;;10.77;7.63;;;14.80;99.90;;;;;;5090262;28;20202;-81
2022/07/23 03:10:53;;;;;;;12.88;7.70;;;14.90;99.90;;;;;;5105619;28;20207;-82
2022/07/23 03:13:19;;;;;;;11.88;8.48;;;15.00;99.90;;;;;;5112037;28;20229;-81
2022/07/23 03:15:46;;;;;;;14.57;8.50;;;15.00;99.90;;;;;;5109066;28;20550;-82
2022/07/23 03:18:13;;;;;;;11.17;7.93;;;15.00;99.90;;;;;;5112067;28;20300;-81
2022/07/23 03:20:40;;;;;;;13.80;8.10;;;15.00;99.90;;;;;;5112390;28;20207;-80
2022/07/23 03:23:08;;;;;;;11.97;8.10;;;15.00;99.90;;;;;;5110674;28;20308;-82
2022/07/23 03:25:35;;;;;;;11.05;8.00;;;15.10;99.90;;;;;;5109804;28;20571;-81
2022/07/23 03:28:02;;;;;;;13.20;8.07;;;15.00;99.90;;;;;;5112201;28;20649;-81
2022/07/23 03:30:29;;;;;;;15.82;7.47;;;15.00;99.90;;;;;;5111819;28;20208;-81
2022/07/23 03:32:56;;;;;;;12.10;8.60;;;15.10;99.90;;;;;;5111335;28;20312;-81
2022/07/23 03:35:22;;;;;;;14.02;8.32;;;15.10;99.90;;;;;;5112339;28;20209;-81
2022/07/23 03:37:49;;;;;;;13.38;9.13;;;15.20;99.90;;;;;;5112116;28;20211;-80
2022/07/23 03:40:18;;;;;;;11.50;8.05;;;15.00;99.90;;;;;;5116331;28;20212;-81
2022/07/23 03:42:45;;;;;;;13.97;7.87;;;15.10;99.90;;;;;;5115371;28;20274;-81
2022/07/23 03:45:12;;;;;;;11.73;8.10;;;15.20;99.90;;;;;;5116312;28;20197;-81
2022/07/23 03:47:39;;;;;;;12.85;8.38;;;15.30;99.90;;;;;;5115771;28;20629;-81
2022/07/23 03:50:07;;;;;;;13.27;8.85;;;15.20;99.90;;;;;;5116103;28;20250;-81
2022/07/23 03:52:34;;;;;;;13.10;8.15;;;15.20;99.90;;;;;;5116401;28;20251;-81
2022/07/23 03:55:01;;;;;;;11.18;7.63;;;15.20;99.90;;;;;;5115505;28;20304;-81
2022/07/23 03:57:30;;;;;;;11.43;7.63;;;15.10;99.90;;;;;;5115236;28;20201;-82
2022/07/23 03:59:57;;;;;;;11.98;8.27;;;15.10;99.90;;;;;;5114566;28;20230;-82
2022/07/23 04:02:24;;;;;;;13.20;8.47;;;15.20;99.90;;;;;;5113945;28;20358;-82
2022/07/23 04:04:51;;;;;;;11.90;8.20;;;15.30;99.90;;;;;;5116243;28;20217;-82
2022/07/23 04:07:18;;;;;;;12.20;8.32;;;15.20;99.90;;;;;;5114914;28;20197;-82
2022/07/23 04:09:45;;;;;;;11.88;8.45;;;15.10;99.90;;;;;;5114513;28;20205;-81
2022/07/23 04:12:12;;;;;;;13.40;8.73;;;15.10;99.90;;;;;;5115308;28;20305;-81
2022/07/23 04:14:40;;;;;;;12.20;8.35;;;15.10;99.90;;;;;;5115457;28;20220;-81
2022/07/23 04:17:07;;;;;;;11.98;8.35;;;15.10;99.90;;;;;;5115613;28;20224;-81
2022/07/23 04:19:35;;;;;;;14.13;8.93;;;15.10;99.90;;;;;;5115856;28;20621;-81
2022/07/23 04:22:02;;;;;;;14.88;9.18;;;15.10;99.90;;;;;;5115469;28;20208;-82
2022/07/23 04:24:29;;;;;;;14.87;9.43;;;15.30;99.90;;;;;;5115146;28;20217;-81
2022/07/23 04:26:55;;;;;;;14.13;9.35;;;15.30;99.90;;;;;;5116364;28;20204;-82
2022/07/23 04:29:22;;;;;;;13.30;8.27;;;15.30;99.90;;;;;;5113766;28;20296;-83
2022/07/23 04:31:50;;;;;;;15.15;9.80;;;15.40;99.90;;;;;;5113582;28;20664;-82
2022/07/23 04:34:17;;;;;;;13.23;9.35;;;15.50;99.90;;;;;;5112501;28;20222;-81
2022/07/23 04:36:44;;;;;;;13.05;9.23;;;15.40;99.90;;;;;;5096068;28;20575;-82
2022/07/23 04:39:11;;;;;;;12.57;9.77;;;15.30;99.90;;;;;;5095869;28;20202;-82
2022/07/23 04:41:38;;;;;;;15.50;9.63;;;15.40;99.90;;;;;;5095839;28;20237;-82
2022/07/23 04:44:05;;;;;;;12.35;9.40;;;15.60;99.90;;;;;;5095399;28;20763;-83
2022/07/23 04:46:32;;;;;;;12.75;8.73;;;15.50;99.90;;;;;;5102625;28;20220;-83
2022/07/23 04:49:00;;;;;;;14.55;9.05;;;15.40;99.90;;;;;;5113856;28;20219;-81
2022/07/23 04:51:26;;;;;;;14.63;9.25;;;15.40;99.90;;;;;;5116303;28;20201;-82
2022/07/23 04:53:53;;;;;;;13.50;8.38;;;15.50;99.90;;;;;;5127118;27;20311;-82
2022/07/23 04:56:20;;;;;;;11.27;8.43;;;15.50;99.90;;;;;;5113768;27;20221;-82
2022/07/23 04:58:47;;;;;;;11.88;8.23;;;15.40;99.90;;;;;;5094883;28;20198;-81
2022/07/23 05:01:14;;;;;;;12.05;7.95;;;15.40;99.90;;;;;;5094617;28;20209;-82
2022/07/23 05:03:41;;;;;;;11.77;8.07;;;15.40;99.90;;;;;;5094677;28;20257;-82
2022/07/23 05:06:09;;;;;;;13.25;8.07;;;15.40;99.90;;;;;;5094777;28;20289;-82
2022/07/23 05:08:36;;;;;;;11.98;7.72;;;15.30;99.90;;;;;;5120783;27;20275;-81
2022/07/23 05:11:03;;;;;;;10.32;8.23;;;15.40;99.90;;;;;;5114481;28;20193;-81
2022/07/23 05:13:30;;;;;;;13.30;8.88;;;15.30;99.90;;;;;;5115319;28;20300;-81
2022/07/23 05:15:57;;;;;;;13.55;8.15;;;15.30;99.90;;;;;;5114617;28;20227;-82
2022/07/23 05:18:24;;;;;;;11.55;8.13;;;15.30;99.90;;;;;;5112995;27;20504;-81
2022/07/23 05:20:50;;;;;;;14.50;8.63;;;15.30;99.90;;;;;;5106990;27;20662;-84
2022/07/23 05:23:19;;;;;;;11.70;8.50;;;15.30;99.90;;;;;;5109256;28;20685;-81
2022/07/23 05:25:46;;;;;;;12.85;8.60;;;15.20;99.90;;;;;;5110398;27;20566;-81
2022/07/23 05:28:13;;;;;;;12.45;9.00;;;15.40;99.90;;;;;;5109979;28;20254;-84
2022/07/23 05:30:40;;;;;;;15.23;9.25;;;15.70;99.90;;;;;;5116114;27;20213;-83
2022/07/23 05:33:07;;;;;;;13.60;8.63;;;16.00;99.90;;;;;;5106433;28;20228;-82
2022/07/23 05:35:34;;;;;;;11.98;8.52;;;16.00;99.90;;;;;;5110303;28;20634;-82
2022/07/23 05:38:01;;;;;;;10.88;7.97;;;16.40;99.90;;;;;;5114266;27;20216;-81
2022/07/23 05:40:29;;;;;;;11.38;8.40;;;17.00;99.90;;;;;;5113070;27;20201;-83
2022/07/23 05:42:56;;;;;;;11.30;8.00;;;16.80;99.90;;;;;;5105518;27;20240;-82
2022/07/23 05:45:23;;;;;;;8.50;7.55;;;16.90;99.90;;;;;;5107103;28;20195;-81
2022/07/23 05:47:50;;;;;;;11.73;8.00;;;17.80;99.90;;;;;;5111384;27;20716;-83
2022/07/23 05:50:18;;;;;;;14.55;7.57;;;18.30;99.90;;;;;;5108719;28;20288;-82
2022/07/23 05:52:45;;;;;;;9.38;7.20;;;17.80;99.90;;;;;;5106518;28;20663;-82
2022/07/23 05:55:13;;;;;;;13.93;8.27;;;17.60;99.90;;;;;;5103588;27;20299;-80
2022/07/23 05:57:42;;;;;;;11.40;6.57;;;17.40;99.90;;;;;;5106179;28;20675;-80
2022/07/23 06:00:11;;;;;;;9.50;6.32;;;17.00;99.90;;;;;;5111372;28;20213;-84
2022/07/23 06:02:38;;;;;;;9.52;6.55;;;16.80;99.90;;;;;;5112293;28;20204;-80
2022/07/23 06:05:07;;;;;;;9.07;6.07;;;16.80;99.90;;;;;;5117747;28;20259;-80
2022/07/23 06:07:34;;;;;;;9.35;5.95;;;16.90;99.90;;;;;;5100977;28;20201;-80
2022/07/23 06:10:01;;;;;;;8.15;6.00;;;16.90;99.90;;;;;;5105324;28;20196;-80
2022/07/23 06:12:27;;;;;;;9.43;6.25;;;16.80;99.90;;;;;;5116601;28;20268;-80
2022/07/23 06:14:56;;;;;;;12.23;6.45;;;16.90;99.90;;;;;;5117798;28;20312;-80
2022/07/23 06:17:22;;;;;;;8.40;5.97;;;16.90;99.90;;;;;;5116592;28;20295;-80
2022/07/23 06:19:49;;;;;;;10.07;5.88;;;16.80;99.90;;;;;;5118192;28;20578;-79
2022/07/23 06:22:16;;;;;;;10.73;6.25;;;17.00;99.90;;;;;;5117893;28;20261;-80
2022/07/23 06:24:43;;;;;;;11.18;6.30;;;16.90;99.90;;;;;;5117868;28;20256;-80
2022/07/23 06:27:10;;;;;;;9.60;6.10;;;16.80;99.90;;;;;;5117380;28;20232;-81
2022/07/23 06:29:37;;;;;;;7.43;4.85;;;16.90;99.90;;;;;;5117284;28;20661;-80
2022/07/23 06:32:05;;;;;;;8.15;6.15;;;17.00;99.90;;;;;;5112913;28;20201;-80
2022/07/23 06:34:32;;;;;;;9.20;6.07;;;16.90;99.90;;;;;;5112930;28;20284;-79
2022/07/23 06:36:59;;;;;;;9.00;6.00;;;17.10;99.90;;;;;;5114342;28;20691;-81
2022/07/23 06:39:26;;;;;;;11.93;7.13;;;17.20;99.90;;;;;;5112017;28;20296;-81
2022/07/23 06:41:53;;;;;;;8.80;6.25;;;17.10;99.90;;;;;;5116666;28;20233;-80
2022/07/23 06:44:20;;;;;;;8.40;6.32;;;17.10;99.90;;;;;;5115239;28;20244;-80
2022/07/23 06:46:47;;;;;;;11.55;6.50;;;17.20;99.90;;;;;;5105664;28;20203;-81
2022/07/23 06:49:15;;;;;;;9.70;6.03;;;17.20;99.90;;;;;;5109056;28;20288;-80
2022/07/23 06:51:42;;;;;;;11.27;5.80;;;17.30;99.90;;;;;;5108986;28;20197;-80
2022/07/23 06:54:09;;;;;;;8.57;5.50;;;17.30;99.90;;;;;;5111020;28;20691;-80
2022/07/23 06:56:36;;;;;;;8.90;5.82;;;17.40;99.90;;;;;;5115488;28;20224;-80
2022/07/23 06:59:03;;;;;;;9.52;5.45;;;17.40;99.90;;;;;;5120468;28;20295;-81
2022/07/23 07:01:30;;;;;;;7.93;5.55;;;17.60;99.90;;;;;;5114888;28;20636;-79
2022/07/23 07:03:57;;;;;;;12.82;5.25;;;17.70;99.90;;;;;;5108443;28;20220;-78
2022/07/23 07:06:25;;;;;;;5.65;5.05;;;17.70;99.90;;;;;;5112395;28;20193;-79
2022/07/23 07:08:52;;;;;;;6.30;4.60;;;17.60;99.90;;;;;;5116067;28;20653;-79
2022/07/23 07:11:19;;;;;;;8.90;5.43;;;17.70;99.90;;;;;;5116394;28;20204;-80
2022/07/23 07:13:46;;;;;;;5.38;4.60;;;17.60;99.90;;;;;;5119177;28;20239;-80
2022/07/23 07:16:13;;;;;;;8.27;5.28;;;17.90;99.90;;;;;;5116883;27;20586;-80
2022/07/23 07:18:40;;;;;;;6.95;5.15;;;17.90;99.90;;;;;;5120703;27;20197;-80
2022/07/23 07:21:07;;;;;;;10.90;5.47;;;17.80;99.90;;;;;;5123197;27;20287;-80
2022/07/23 07:23:35;;;;;;;8.38;5.22;;;17.90;99.90;;;;;;5121121;27;20312;-80
2022/07/23 07:26:02;;;;;;;8.02;5.30;;;17.90;99.90;;;;;;5119364;27;20201;-80
2022/07/23 07:28:29;;;;;;;11.00;5.60;;;17.90;99.90;;;;;;5120369;28;20201;-80
2022/07/23 07:30:56;;;;;;;7.30;4.93;;;17.90;99.90;;;;;;5124382;27;20207;-80
2022/07/23 07:33:23;;;;;;;8.50;4.80;;;18.00;99.90;;;;;;5119076;28;20220;-80
2022/07/23 07:35:49;;;;;;;8.98;4.70;;;18.30;99.90;;;;;;5120809;27;20216;-80
2022/07/23 07:38:16;;;;;;;7.88;5.07;;;18.30;99.90;;;;;;5117966;28;20229;-80
2022/07/23 07:40:44;;;;;;;12.98;8.25;;;18.40;99.90;;;;;;5130968;27;20826;-80
2022/07/23 07:43:11;;;;;;;9.13;5.20;;;18.50;99.90;;;;;;5119866;27;20220;-80
2022/07/23 07:45:38;;;;;;;8.20;4.85;;;18.60;99.90;;;;;;5123099;27;20725;-80
2022/07/23 07:48:06;;;;;;;7.15;4.70;;;18.40;99.90;;;;;;5116417;27;20634;-81
2022/07/23 07:50:32;;;;;;;6.13;4.57;;;18.60;99.90;;;;;;5123915;27;20291;-80
2022/07/23 07:52:59;;;;;;;6.57;4.20;;;18.70;99.90;;;;;;5124299;27;20250;-80
2022/07/23 07:55:26;;;;;;;7.55;5.20;;;18.90;99.90;;;;;;5120835;27;20225;-80
2022/07/23 07:57:55;;;;;;;6.35;3.75;;;19.00;99.90;;;;;;5113944;28;20197;-80
2022/07/23 08:00:22;;;;;;;6.63;4.00;;;19.00;99.90;;;;;;5115507;28;20292;-80
2022/07/23 08:02:50;;;;;;;8.05;4.57;;;18.80;99.90;;;;;;5122669;27;20300;-80
2022/07/23 08:05:20;;;;;;;5.00;3.63;;;18.90;99.90;;;;;;5118453;27;20261;-80
2022/07/23 08:07:47;;;;;;;11.13;4.43;;;18.90;99.90;;;;;;5120234;28;20201;-81
2022/07/23 08:10:14;;;;;;;6.72;3.90;;;19.00;99.90;;;;;;5118639;28;20216;-81
2022/07/23 08:12:46;;;;;;;5.10;4.30;;;19.00;99.90;;;;;;5124689;27;20200;-81
2022/07/23 08:15:16;;;;;;;6.53;4.53;;;19.00;99.90;;;;;;5118136;27;20231;-80
2022/07/23 08:17:43;;;;;;;6.25;4.25;;;19.10;99.90;;;;;;5121812;28;20331;-80
2022/07/23 08:20:12;;;;;;;5.85;4.20;;;19.00;99.90;;;;;;5116484;28;20297;-81
2022/07/23 08:22:47;;;;;;;5.78;4.40;;;19.00;99.90;;;;;;5118366;27;20204;-80
2022/07/23 08:25:15;;;;;;;5.22;4.43;;;19.10;99.90;;;;;;5110942;28;20732;-81
2022/07/23 08:27:42;;;;;;;9.32;4.40;;;19.20;99.90;;;;;;5117862;28;20201;-81
2022/07/23 08:30:10;;;;;;;6.32;4.22;;;19.70;99.90;;;;;;5114241;28;20208;-80
2022/07/23 08:32:51;;;;;;;6.03;4.40;;;19.50;99.90;;;;;;5119759;28;20220;-80
2022/07/23 08:35:22;;;;;;;7.20;4.50;;;19.30;99.90;;;;;;5119688;28;20261;-81
2022/07/23 08:37:49;;;;;;;4.93;4.03;;;19.20;99.90;;;;;;5119487;28;20225;-81
2022/07/23 08:40:15;;;;;;;7.05;3.60;;;19.50;99.90;;;;;;5120052;28;20197;-80
2022/07/23 08:42:43;;;;;;;7.40;3.83;;;19.50;99.90;;;;;;5119923;28;20201;-80
2022/07/23 08:45:10;;;;;;;7.70;3.85;;;19.30;99.90;;;;;;5119398;28;20201;-80
2022/07/23 08:47:39;;;;;;;6.78;4.00;;;19.40;99.90;;;;;;5118179;28;20193;-81
2022/07/23 08:50:08;;;;;;;5.28;3.53;;;19.40;99.90;;;;;;5117903;28;20221;-80
2022/07/23 08:52:37;;;;;;;3.53;2.90;;;19.20;99.20;;;;;;5118914;28;20540;-79
2022/07/23 08:55:05;;;;;;;3.90;3.20;;;19.70;99.90;;;;;;5118416;28;20205;-80
2022/07/23 08:57:31;;;;;;;4.07;3.42;;;20.10;99.80;;;;;;5115817;28;20231;-80
2022/07/23 08:59:59;;;;;;;3.15;2.67;;;20.10;93.00;;;;;;5115959;28;20728;-80
2022/07/23 09:02:26;;;;;;;3.35;2.95;;;20.30;96.30;;;;;;5114983;28;20219;-80
2022/07/23 09:04:53;;;;;;;4.18;2.92;;;20.90;90.40;;;;;;5116349;28;20204;-80
2022/07/23 09:07:21;;;;;;;4.32;2.67;;;20.70;85.50;;;;;;5115093;28;20193;-80
2022/07/23 09:10:06;;;;;;;5.95;3.10;;;20.90;88.40;;;;;;5113832;28;20209;-80
2022/07/23 09:12:32;;;;;;;5.03;3.03;;;21.10;77.70;;;;;;5113810;28;20200;-81
2022/07/23 09:15:05;;;;;;;7.13;3.08;;;21.90;82.10;;;;;;5109988;28;20193;-80
2022/07/23 09:17:38;;;;;;;4.47;3.38;;;21.60;75.80;;;;;;5121290;28;20221;-79
2022/07/23 09:20:11;;;;;;;4.97;2.80;;;21.20;71.80;;;;;;5127192;28;20216;-81
2022/07/23 09:22:48;;;;;;;3.75;2.92;;;21.60;74.40;;;;;;5130074;27;20423;-80
2022/07/23 09:25:18;;;;;;;3.70;3.00;;;22.10;67.50;;;;;;5130408;28;20224;-80
2022/07/23 09:27:57;;;;;;;3.47;2.50;;;22.40;63.20;;;;;;5136258;27;20200;-80
2022/07/23 09:30:48;;;;;;;3.55;2.58;;;22.40;60.50;;;;;;5132910;28;20189;-80
2022/07/23 09:33:20;;;;;;;5.00;2.78;;;21.80;58.90;;;;;;5133425;27;20220;-80
2022/07/23 09:35:49;;;;;;;4.63;2.80;;;21.80;62.10;;;;;;5134310;27;20223;-81
2022/07/23 09:38:19;;;;;;;4.30;2.53;;;21.90;59.70;;;;;;5141355;27;20199;-82
2022/07/23 09:40:46;;;;;;;3.10;2.80;;;21.90;58.00;;;;;;5138847;27;20211;-81
2022/07/23 09:43:26;;;;;;;2.63;2.42;;;22.00;53.80;;;;;;5134794;27;20200;-81
2022/07/23 09:45:54;;;;;;;3.40;2.78;;;21.80;59.20;;;;;;5134770;28;20185;-81
2022/07/23 09:48:23;;;;;;;4.13;2.80;;;21.80;63.30;;;;;;5141838;27;20223;-81
2022/07/23 09:50:52;;;;;;;3.63;2.72;;;21.60;61.70;;;;;;5128044;28;20240;-81
2022/07/23 09:53:26;;;;;;;5.38;3.30;;;22.00;61.50;;;;;;5135672;28;20212;-81
2022/07/23 09:55:59;;;;;;;4.07;2.83;;;22.50;56.20;;;;;;5145900;27;20175;-81
2022/07/23 09:58:27;;;;;;;3.28;2.75;;;22.40;56.40;;;;;;5139894;27;20184;-82
2022/07/23 10:00:54;;;;;;;4.65;3.10;;;21.90;58.30;;;;;;5136022;27;20200;-82
2022/07/23 10:03:21;;;;;;;3.42;2.72;;;22.60;56.10;;;;;;5141573;27;20208;-81
2022/07/23 10:05:50;;;;;;;4.45;2.70;;;23.30;53.30;;;;;;5140119;27;20227;-81
2022/07/23 10:08:21;;;;;;;5.22;2.92;;;23.60;48.30;;;;;;5132375;27;20202;-81
2022/07/23 10:10:54;;;;;;;4.97;3.08;;;23.80;46.30;;;;;;5136547;27;20265;-81
2022/07/23 10:16:15;;;;;;;4.32;2.65;;;23.90;44.00;;;;;;5097822;27;20263;-82
2022/07/23 10:18:42;;;;;;;5.70;2.78;;;24.10;40.00;;;;;;5135465;28;20228;-82
2022/07/23 10:21:10;;;;;;;3.80;2.25;;;24.30;38.60;;;;;;5130341;28;20562;-82
2022/07/23 10:23:43;;;;;;;3.92;2.45;;;24.60;39.40;;;;;;5132073;28;20255;-83
2022/07/23 10:26:18;;;;;;;2.70;2.33;;;23.30;39.10;;;;;;5127320;28;20200;-82
2022/07/23 10:29:03;;;;;;;3.45;2.55;;;22.70;43.00;;;;;;5133965;27;20219;-83
2022/07/23 10:31:41;;;;;;;3.83;2.60;;;23.30;42.30;;;;;;5129793;28;20219;-82
2022/07/23 10:34:17;;;;;;;3.20;2.45;;;23.50;41.00;;;;;;5128350;28;20223;-84
2022/07/23 10:36:50;;;;;;;4.45;2.72;;;23.10;39.00;;;;;;5139845;28;20240;-82
2022/07/23 10:39:22;;;;;;;3.50;2.58;;;22.90;41.20;;;;;;5127246;28;20191;-81
2022/07/23 10:41:52;;;;;;;4.07;2.50;;;23.60;39.30;;;;;;5135554;28;20794;-83
2022/07/23 10:44:22;;;;;;;4.35;2.70;;;23.50;38.90;;;;;;5137234;28;20240;-81
2022/07/23 10:49:42;;;;;;;3.55;2.10;;;23.00;36.50;;;;;;5134816;27;20192;-82
2022/07/23 10:52:26;;;;;;;2.80;2.30;;;23.80;35.20;;;;;;5133224;27;20234;-84
2022/07/23 10:54:55;;;;;;;2.85;2.47;;;23.50;38.40;;;;;;5130396;28;20207;-82
2022/07/23 10:57:25;;;;;;;4.05;2.50;;;22.70;38.80;;;;;;5134298;28;20240;-81
2022/07/23 11:00:25;;;;;;;3.05;2.47;;;23.00;36.30;;;;;;5135609;27;20204;-81
2022/07/23 11:02:53;;;;;;;2.97;2.22;;;23.70;36.10;;;;;;5137857;27;20251;-82
2022/07/23 11:05:21;;;;;;;2.95;2.28;;;24.10;31.80;;;;;;5137843;28;20188;-81
2022/07/23 11:08:25;;;;;;;3.15;2.65;;;23.90;31.60;;;;;;5145956;27;20216;-80
2022/07/23 11:10:57;;;;;;;3.35;2.30;;;23.70;31.80;;;;;;5137089;28;20212;-81
2022/07/23 11:13:42;;;;;;;3.65;2.28;;;24.50;30.40;;;;;;5135246;27;20243;-82
2022/07/23 11:16:18;;;;;;;3.65;2.28;;;24.60;28.00;;;;;;5134185;27;20177;-81
2022/07/23 11:19:09;;;;;;;2.15;2.00;;;24.10;28.80;;;;;;5134329;27;20216;-81
2022/07/23 11:21:49;;;;;;;3.55;2.65;;;24.50;31.10;;;;;;5116924;27;20190;-82
2022/07/23 11:24:19;;;;;;;3.25;2.53;;;24.30;31.00;;;;;;5140867;27;20502;-82
2022/07/23 11:26:49;;;;;;;2.72;2.55;;;24.50;29.20;;;;;;5135235;27;20220;-82
2022/07/23 11:29:46;;;;;;;3.25;2.42;;;24.10;28.80;;;;;;5132744;27;20194;-82
2022/07/23 11:32:40;;;;;;;4.53;2.45;;;23.30;30.40;;;;;;5138407;27;20308;-82
2022/07/23 11:35:25;;;;;;;4.75;2.50;;;24.00;31.80;;;;;;5122383;27;20228;-82
2022/07/23 11:37:59;;;;;;;2.25;1.98;;;24.20;29.20;;;;;;5133033;27;20221;-82
2022/07/23 11:40:27;;;;;;;2.05;1.92;;;24.80;28.70;;;;;;5139532;27;20197;-82
2022/07/23 11:42:57;;;;;;;3.03;1.92;;;24.90;25.40;;;;;;5127755;28;20247;-83
2022/07/23 11:45:26;;;;;;;2.40;1.75;;;24.90;28.40;;;;;;5138588;27;20249;-82
2022/07/23 11:47:53;;;;;;;2.42;1.60;;;25.30;26.20;;;;;;5131128;27;20180;-82
2022/07/23 11:50:24;;;;;;;2.25;1.73;;;25.90;25.70;;;;;;5129861;27;20204;-82
2022/07/23 11:52:50;;;;;;;2.97;1.90;;;24.70;25.50;;;;;;5137751;28;20272;-82
2022/07/23 11:55:17;;;;;;;1.77;1.67;;;24.30;24.40;;;;;;5130648;28;20221;-81
2022/07/23 11:57:44;;;;;;;4.43;2.22;;;24.60;26.20;;;;;;5138998;27;20208;-82
2022/07/23 12:00:14;;;;;;;2.08;1.60;;;25.20;26.10;;;;;;5145294;27;20197;-81
2022/07/23 12:02:44;;;;;;;3.63;2.10;;;25.50;26.00;;;;;;5138284;27;20208;-82
2022/07/23 12:05:13;;;;;;;2.55;1.73;;;25.00;22.60;;;;;;5139804;27;20224;-81
2022/07/23 12:07:43;;;;;;;1.50;1.40;;;24.80;25.30;;;;;;5139751;27;20204;-81
2022/07/23 12:10:13;;;;;;;2.45;1.80;;;24.50;26.20;;;;;;5145344;27;20369;-82
2022/07/23 12:12:41;;;;;;;2.55;1.95;;;24.80;23.80;;;;;;5150955;27;20221;-81
2022/07/23 12:15:09;;;;;;;6.68;2.40;;;24.90;25.40;;;;;;5128899;27;20202;-81
2022/07/23 12:17:39;;;;;;;3.67;2.03;;;25.30;22.70;;;;;;5145062;27;20228;-80
2022/07/23 12:20:10;;;;;;;2.97;1.60;;;24.90;22.90;;;;;;5126137;28;20732;-82
2022/07/23 12:22:40;;;;;;;1.73;1.50;;;24.20;23.90;;;;;;5117447;28;20217;-82
2022/07/23 12:25:09;;;;;;;1.80;1.70;;;25.00;23.60;;;;;;5136868;27;20197;-82
2022/07/23 12:27:37;;;;;;;2.53;1.60;;;25.40;22.10;;;;;;5134014;28;20231;-82
2022/07/23 12:30:24;;;;;;;1.88;1.55;;;25.00;20.30;;;;;;5123554;27;20287;-79
2022/07/23 12:32:53;;;;;;;2.10;1.50;;;25.40;21.30;;;;;;5118181;27;20224;-80
2022/07/23 12:35:22;;;;;;;2.83;1.40;;;25.30;22.40;;;;;;5123809;27;20203;-80
2022/07/23 12:37:52;;;;;;;1.88;1.38;;;25.70;19.10;;;;;;5120077;27;20213;-80
2022/07/23 12:40:29;;;;;;;2.88;1.52;;;25.40;19.50;;;;;;5116336;27;20201;-80
2022/07/23 12:42:58;;;;;;;2.88;1.90;;;25.00;18.10;;;;;;5112676;27;20226;-81
2022/07/23 12:45:25;;;;;;;2.80;1.60;;;25.10;18.00;;;;;;5117987;28;20204;-80
2022/07/23 12:48:05;;;;;;;3.67;1.50;;;25.30;19.80;;;;;;5118341;27;20192;-81
2022/07/23 12:50:36;;;;;;;3.13;1.52;;;25.10;19.30;;;;;;5114167;28;20273;-81
2022/07/23 12:53:05;;;;;;;2.72;1.50;;;25.10;19.60;;;;;;5110375;27;20220;-81
2022/07/23 12:55:32;;;;;;;1.77;1.63;;;25.10;18.70;;;;;;5105024;27;20237;-80
2022/07/23 12:58:08;;;;;;;2.20;1.50;;;25.20;18.00;;;;;;5120840;27;20219;-80